createdAt,value
2017-08-17T00:00:14.051Z,90.49
2017-08-17T00:02:43.523Z,90.57
2017-08-17T00:05:13.421Z,90.46
2017-08-17T00:07:43.754Z,90.57
2017-08-17T00:10:13.149Z,90.51
2017-08-17T00:12:43.874Z,90.47
2017-08-17T00:15:13.879Z,86.84
2017-08-17T00:17:44.202Z,86.37
2017-08-17T00:20:13.803Z,86.79
2017-08-17T00:22:43.856Z,91.04
2017-08-17T00:25:13.679Z,92.65
2017-08-17T00:27:44.735Z,93.60
2017-08-17T00:30:14.162Z,88.11
2017-08-17T00:32:44.218Z,92.44
2017-08-17T00:35:13.887Z,92.94
2017-08-17T00:37:44.091Z,88.21
2017-08-17T00:40:13.411Z,94.08
2017-08-17T00:42:44.107Z,90.42
2017-08-17T00:45:13.655Z,88.24
2017-08-17T00:47:44.072Z,90.18
2017-08-17T00:50:13.824Z,92.85
2017-08-17T00:52:44.347Z,96.55
2017-08-17T00:55:13.835Z,90.16
2017-08-17T00:57:44.350Z,89.62
2017-08-17T01:00:13.672Z,88.29
2017-08-17T01:02:44.577Z,91.86
2017-08-17T01:05:14.884Z,89.84
2017-08-17T01:07:44.318Z,94.42
2017-08-17T01:10:13.704Z,96.14
2017-08-17T01:12:52.261Z,92.08
2017-08-17T01:15:21.736Z,96.07
2017-08-17T01:17:51.238Z,89.94
2017-08-17T01:20:21.344Z,88.33
2017-08-17T01:22:50.996Z,87.73
2017-08-17T01:25:20.616Z,87.08
2017-08-17T01:27:50.597Z,91.53
2017-08-17T01:30:20.306Z,92.11
2017-08-17T01:32:49.710Z,87.93
2017-08-17T01:35:19.635Z,94.31
2017-08-17T01:37:49.208Z,95.31
2017-08-17T01:40:18.787Z,95.56
2017-08-17T01:42:48.583Z,95.09
2017-08-17T01:45:18.390Z,90.53
2017-08-17T01:47:48.118Z,94.63
2017-08-17T01:50:18.100Z,94.24
2017-08-17T01:52:47.662Z,94.84
2017-08-17T01:55:17.478Z,95.55
2017-08-17T01:57:46.999Z,94.09
2017-08-17T02:00:16.892Z,95.56
2017-08-17T02:02:47.163Z,97.56
2017-08-17T02:05:16.906Z,98.00
2017-08-17T02:07:46.486Z,97.23
2017-08-17T02:10:16.335Z,97.02
2017-08-17T02:12:46.565Z,98.56
2017-08-17T02:15:16.067Z,94.05
2017-08-17T02:17:45.458Z,92.44
2017-08-17T02:20:15.301Z,90.91
2017-08-17T02:22:45.944Z,92.61
2017-08-17T02:25:15.622Z,96.13
2017-08-17T02:27:45.063Z,95.07
2017-08-17T02:30:14.863Z,94.20
2017-08-17T02:32:44.584Z,91.21
2017-08-17T02:35:14.068Z,93.59
2017-08-17T02:37:44.106Z,96.54
2017-08-17T02:40:14.100Z,91.90
2017-08-17T02:42:43.987Z,91.02
2017-08-17T02:45:13.982Z,92.44
2017-08-17T02:47:44.150Z,90.51
2017-08-17T02:50:14.033Z,94.48
2017-08-17T02:52:44.734Z,94.07
2017-08-17T02:55:14.823Z,89.75
2017-08-17T02:57:44.318Z,89.54
2017-08-17T03:00:14.731Z,94.29
2017-08-17T03:02:44.482Z,91.81
2017-08-17T03:05:14.071Z,95.57
2017-08-17T03:07:44.102Z,93.98
2017-08-17T03:10:13.903Z,96.36
2017-08-17T03:12:43.954Z,97.83
2017-08-17T03:15:13.513Z,90.89
2017-08-17T03:17:46.483Z,94.30
2017-08-17T03:20:16.710Z,91.82
2017-08-17T03:22:46.022Z,95.50
2017-08-17T03:25:15.301Z,91.87
2017-08-17T03:27:45.199Z,93.95
2017-08-17T03:30:14.820Z,95.64
2017-08-17T03:32:44.275Z,94.30
2017-08-17T03:35:14.234Z,97.65
2017-08-17T03:37:44.107Z,98.76
2017-08-17T03:40:13.751Z,92.95
2017-08-17T03:42:44.538Z,91.86
2017-08-17T03:45:14.238Z,98.38
2017-08-17T03:47:44.115Z,93.14
2017-08-17T03:50:13.668Z,91.58
2017-08-17T03:52:45.312Z,93.51
2017-08-17T03:55:15.187Z,97.45
2017-08-17T03:57:44.338Z,99.18
2017-08-17T04:00:14.021Z,92.45
2017-08-17T04:02:44.779Z,92.84
2017-08-17T04:05:14.451Z,98.37
2017-08-17T04:07:44.411Z,100.00
2017-08-17T04:10:18.104Z,98.21
2017-08-17T04:12:47.794Z,95.39
2017-08-17T04:15:17.611Z,100.00
2017-08-17T04:17:46.763Z,96.10
2017-08-17T04:20:16.118Z,96.25
2017-08-17T04:22:48.058Z,99.89
2017-08-17T04:25:17.355Z,94.63
2017-08-17T04:27:46.553Z,100.00
2017-08-17T04:30:15.865Z,95.14
2017-08-17T04:32:45.636Z,94.47
2017-08-17T04:35:15.063Z,92.86
2017-08-17T04:37:44.566Z,92.77
2017-08-17T04:40:14.486Z,93.31
2017-08-17T04:42:44.763Z,98.69
2017-08-17T04:45:13.951Z,93.78
2017-08-17T04:47:43.875Z,93.35
2017-08-17T04:50:13.234Z,98.82
2017-08-17T04:52:46.063Z,94.37
2017-08-17T04:55:16.011Z,93.71
2017-08-17T04:58:01.555Z,93.43
2017-08-17T05:00:31.454Z,93.99
2017-08-17T05:03:00.650Z,93.71
2017-08-17T05:05:30.026Z,93.77
2017-08-17T05:07:59.722Z,94.45
2017-08-17T05:10:28.950Z,94.10
2017-08-17T05:12:58.299Z,94.22
2017-08-17T05:15:28.177Z,96.02
2017-08-17T05:17:57.478Z,95.10
2017-08-17T05:20:26.971Z,93.97
2017-08-17T05:22:56.694Z,94.66
2017-08-17T05:25:25.906Z,95.54
2017-08-17T05:27:55.184Z,96.61
2017-08-17T05:30:25.200Z,95.33
2017-08-17T05:32:54.459Z,95.17
2017-08-17T05:35:24.072Z,97.53
2017-08-17T05:37:53.798Z,95.98
2017-08-17T05:40:23.103Z,95.97
2017-08-17T05:42:52.373Z,97.60
2017-08-17T05:45:22.275Z,97.93
2017-08-17T05:47:51.558Z,97.03
2017-08-17T05:50:20.844Z,96.82
2017-08-17T05:52:50.398Z,96.64
2017-08-17T05:55:19.592Z,97.46
2017-08-17T05:57:48.811Z,97.21
2017-08-17T06:00:18.299Z,97.51
2017-08-17T06:02:47.559Z,96.87
2017-08-17T06:05:16.715Z,96.47
2017-08-17T06:07:46.320Z,96.76
2017-08-17T06:10:15.988Z,97.08
2017-08-17T06:12:45.182Z,96.45
2017-08-17T06:15:14.743Z,96.03
2017-08-17T06:17:44.286Z,94.83
2017-08-17T06:20:13.616Z,94.78
2017-08-17T06:22:45.916Z,92.03
2017-08-17T06:25:15.216Z,92.21
2017-08-17T06:27:44.511Z,91.93
2017-08-17T06:30:14.304Z,91.89
2017-08-17T06:32:44.214Z,94.14
2017-08-17T06:35:13.357Z,91.68
2017-08-17T06:37:44.015Z,91.06
2017-08-17T06:40:13.211Z,91.25
2017-08-17T06:42:46.611Z,90.89
2017-08-17T06:45:17.083Z,90.54
2017-08-17T06:47:46.243Z,90.72
2017-08-17T06:50:15.415Z,90.00
2017-08-17T06:52:45.099Z,90.90
2017-08-17T06:55:14.658Z,88.72
2017-08-17T06:57:44.539Z,88.30
2017-08-17T07:00:14.984Z,90.35
2017-08-17T07:02:45.065Z,88.65
2017-08-17T07:05:14.284Z,87.96
2017-08-17T07:07:44.945Z,85.89
2017-08-17T07:10:14.399Z,89.06
2017-08-17T07:12:44.172Z,86.14
2017-08-17T07:15:14.039Z,85.59
2017-08-17T07:17:44.223Z,84.79
2017-08-17T07:20:13.724Z,82.54
2017-08-17T07:22:44.771Z,78.03
2017-08-17T07:25:14.355Z,77.71
2017-08-17T07:27:50.288Z,78.76
2017-08-17T07:30:19.680Z,77.14
2017-08-17T07:32:48.930Z,76.77
2017-08-17T07:35:18.940Z,76.98
2017-08-17T07:37:48.307Z,74.93
2017-08-17T07:40:17.523Z,71.63
2017-08-17T07:42:47.301Z,69.49
2017-08-17T07:45:17.117Z,70.03
2017-08-17T07:47:47.156Z,68.88
2017-08-17T07:50:16.699Z,65.79
2017-08-17T07:52:46.228Z,64.88
2017-08-17T07:55:17.732Z,64.14
2017-08-17T07:57:47.619Z,63.73
2017-08-17T08:00:17.055Z,62.67
2017-08-17T08:02:59.275Z,62.10
2017-08-17T08:05:29.800Z,61.90
2017-08-17T08:07:59.722Z,60.98
2017-08-17T08:10:29.556Z,60.14
2017-08-17T08:13:02.094Z,57.51
2017-08-17T08:15:31.576Z,58.67
2017-08-17T08:18:01.371Z,57.50
2017-08-17T08:20:32.177Z,56.32
2017-08-17T08:23:01.898Z,56.82
2017-08-17T08:28:05.433Z,55.95
2017-08-17T08:30:34.981Z,55.39
2017-08-17T08:33:04.358Z,55.29
2017-08-17T08:35:33.574Z,55.31
2017-08-17T08:38:03.105Z,55.33
2017-08-17T08:40:32.330Z,55.36
2017-08-17T08:43:01.759Z,54.76
2017-08-17T08:45:31.271Z,56.41
2017-08-17T08:48:00.855Z,54.11
2017-08-17T08:50:30.167Z,52.73
2017-08-17T08:52:59.794Z,53.56
2017-08-17T08:55:29.107Z,55.14
2017-08-17T08:57:58.923Z,54.18
2017-08-17T09:00:28.660Z,54.15
2017-08-17T09:02:58.307Z,50.93
2017-08-17T09:05:27.523Z,54.01
2017-08-17T09:07:57.024Z,55.46
2017-08-17T09:10:26.179Z,52.47
2017-08-17T09:12:55.403Z,51.51
2017-08-17T09:15:25.271Z,49.97
2017-08-17T09:17:54.447Z,51.47
2017-08-17T09:20:23.645Z,52.82
2017-08-17T09:22:53.144Z,50.85
2017-08-17T09:25:22.378Z,49.90
2017-08-17T09:27:51.820Z,50.17
2017-08-17T09:30:21.344Z,50.75
2017-08-17T09:32:50.682Z,50.44
2017-08-17T09:35:19.883Z,50.58
2017-08-17T09:37:49.761Z,50.54
2017-08-17T09:40:18.999Z,51.73
2017-08-17T09:42:48.457Z,53.37
2017-08-17T09:45:17.996Z,51.77
2017-08-17T09:47:47.195Z,52.65
2017-08-17T09:50:16.351Z,51.10
2017-08-17T09:52:46.067Z,51.16
2017-08-17T09:55:15.299Z,53.35
2017-08-17T09:57:44.651Z,51.02
2017-08-17T10:00:14.139Z,53.31
2017-08-17T10:02:44.332Z,54.00
2017-08-17T10:05:13.500Z,54.21
2017-08-17T10:07:44.243Z,53.61
2017-08-17T10:10:13.448Z,52.47
2017-08-17T10:12:45.727Z,50.42
2017-08-17T10:15:18.709Z,49.52
2017-08-17T10:17:47.858Z,48.63
2017-08-17T10:20:17.632Z,51.07
2017-08-17T10:22:48.302Z,51.86
2017-08-17T10:25:17.494Z,51.07
2017-08-17T10:27:46.681Z,50.25
2017-08-17T10:30:16.191Z,49.82
2017-08-17T10:32:45.409Z,47.52
2017-08-17T10:35:15.694Z,45.99
2017-08-17T10:37:45.211Z,48.04
2017-08-17T10:40:14.675Z,47.53
2017-08-17T10:42:45.259Z,45.81
2017-08-17T10:45:14.692Z,47.27
2017-08-17T10:47:45.015Z,49.24
2017-08-17T10:50:14.482Z,49.12
2017-08-17T10:52:44.590Z,47.40
2017-08-17T10:55:13.919Z,46.09
2017-08-17T10:57:44.490Z,47.31
2017-08-17T11:00:14.068Z,45.26
2017-08-17T11:02:44.738Z,45.11
2017-08-17T11:05:14.000Z,47.38
2017-08-17T11:07:44.818Z,48.01
2017-08-17T11:10:14.138Z,48.33
2017-08-17T11:12:44.763Z,49.43
2017-08-17T11:15:14.370Z,50.93
2017-08-17T11:17:44.557Z,52.73
2017-08-17T11:20:14.323Z,49.06
2017-08-17T11:22:45.131Z,51.09
2017-08-17T11:25:14.423Z,53.79
2017-08-17T11:27:44.760Z,52.28
2017-08-17T11:30:14.295Z,50.09
2017-08-17T11:32:44.528Z,50.82
2017-08-17T11:35:13.787Z,50.42
2017-08-17T11:37:44.367Z,50.05
2017-08-17T11:40:13.703Z,50.32
2017-08-17T11:42:44.428Z,49.45
2017-08-17T11:45:13.983Z,48.21
2017-08-17T11:47:43.901Z,51.06
2017-08-17T11:50:13.138Z,49.35
2017-08-17T11:52:45.382Z,48.13
2017-08-17T11:55:14.651Z,48.44
2017-08-17T11:57:44.523Z,49.39
2017-08-17T12:00:14.053Z,46.99
2017-08-17T12:02:43.877Z,45.04
2017-08-17T12:05:13.271Z,45.07
2017-08-17T12:07:44.886Z,45.67
2017-08-17T12:10:14.435Z,45.95
2017-08-17T12:12:50.910Z,45.34
2017-08-17T12:15:20.498Z,45.38
2017-08-17T12:17:49.771Z,45.14
2017-08-17T12:20:18.975Z,47.15
2017-08-17T12:22:49.698Z,45.27
2017-08-17T12:25:18.886Z,45.73
2017-08-17T12:27:48.402Z,44.89
2017-08-17T12:30:19.920Z,45.83
2017-08-17T12:32:50.659Z,44.52
2017-08-17T12:35:19.863Z,47.32
2017-08-17T12:37:49.506Z,45.07
2017-08-17T12:40:18.708Z,44.49
2017-08-17T12:42:48.285Z,45.88
2017-08-17T12:45:17.857Z,45.67
2017-08-17T12:47:47.114Z,44.65
2017-08-17T12:50:16.294Z,43.80
2017-08-17T12:53:02.695Z,43.73
2017-08-17T12:55:32.006Z,44.29
2017-08-17T12:58:01.206Z,45.46
2017-08-17T13:00:30.866Z,44.07
2017-08-17T13:03:00.054Z,45.13
2017-08-17T13:05:29.594Z,46.40
2017-08-17T13:07:59.088Z,45.94
2017-08-17T13:10:28.291Z,45.82
2017-08-17T13:12:57.453Z,46.36
2017-08-17T13:15:26.954Z,45.85
2017-08-17T13:17:56.127Z,47.38
2017-08-17T13:20:25.332Z,47.18
2017-08-17T13:22:54.834Z,46.68
2017-08-17T13:25:24.203Z,46.89
2017-08-17T13:27:53.838Z,45.68
2017-08-17T13:30:23.340Z,46.18
2017-08-17T13:32:52.567Z,46.60
2017-08-17T13:35:21.819Z,47.83
2017-08-17T13:37:51.455Z,48.73
2017-08-17T13:40:20.879Z,48.02
2017-08-17T13:42:50.102Z,47.37
2017-08-17T13:45:19.782Z,48.83
2017-08-17T13:47:48.986Z,46.68
2017-08-17T13:50:18.289Z,47.94
2017-08-17T13:52:47.842Z,48.33
2017-08-17T13:55:17.076Z,48.58
2017-08-17T13:57:46.426Z,49.45
2017-08-17T14:00:15.937Z,50.39
2017-08-17T14:02:46.366Z,49.02
2017-08-17T14:11:58.110Z,47.20
2017-08-17T14:14:33.121Z,47.26
2017-08-17T14:17:06.281Z,46.86
2017-08-17T14:19:39.454Z,46.15
2017-08-17T14:22:09.282Z,47.39
2017-08-17T14:24:40.166Z,46.63
2017-08-17T14:27:09.377Z,48.02
2017-08-17T14:29:39.429Z,47.38
2017-08-17T14:32:09.444Z,49.46
2017-08-17T14:34:41.841Z,48.85
2017-08-17T14:37:11.017Z,48.15
2017-08-17T14:39:43.032Z,48.35
2017-08-17T14:42:12.406Z,48.94
2017-08-17T14:44:44.123Z,48.94
2017-08-17T14:47:15.855Z,49.52
2017-08-17T14:49:45.109Z,48.77
2017-08-17T14:52:14.664Z,49.12
2017-08-17T14:54:45.997Z,49.01
2017-08-17T14:57:15.185Z,47.93
2017-08-17T14:59:44.525Z,49.58
2017-08-17T15:02:14.396Z,49.71
2017-08-17T15:04:44.562Z,50.88
2017-08-17T15:07:13.686Z,49.17
2017-08-17T15:09:43.596Z,48.83
2017-08-17T15:12:12.827Z,49.84
2017-08-17T15:14:44.374Z,50.88
2017-08-17T15:17:13.820Z,50.16
2017-08-17T15:19:44.480Z,50.62
2017-08-17T15:22:14.100Z,50.09
2017-08-17T15:24:44.801Z,50.43
2017-08-17T15:27:16.838Z,49.52
2017-08-17T15:29:46.040Z,49.25
2017-08-17T15:32:15.862Z,50.62
2017-08-17T15:34:45.769Z,50.97
2017-08-17T15:37:14.919Z,51.04
2017-08-17T15:39:45.080Z,50.07
2017-08-17T15:42:16.074Z,51.26
2017-08-17T15:44:45.285Z,52.83
2017-08-17T15:47:15.989Z,52.89
2017-08-17T15:49:45.705Z,52.54
2017-08-17T15:52:16.978Z,52.50
2017-08-17T15:54:47.115Z,53.15
2017-08-17T15:57:16.348Z,53.88
2017-08-17T15:59:45.790Z,52.66
2017-08-17T16:02:15.512Z,54.55
2017-08-17T16:04:47.568Z,53.65
2017-08-17T16:07:17.156Z,53.93
2017-08-17T16:09:46.331Z,53.78
2017-08-17T16:12:15.733Z,53.39
2017-08-17T16:14:46.143Z,53.16
2017-08-17T16:17:15.443Z,53.24
2017-08-17T16:19:46.199Z,53.00
2017-08-17T16:22:23.492Z,52.46
2017-08-17T16:24:53.812Z,52.36
2017-08-17T16:28:48.449Z,52.81
2017-08-17T16:31:20.674Z,55.24
2017-08-17T16:33:53.596Z,54.75
2017-08-17T16:36:23.096Z,54.94
2017-08-17T16:38:52.328Z,55.28
2017-08-17T16:41:21.762Z,55.87
2017-08-17T16:43:51.010Z,55.28
2017-08-17T16:46:20.151Z,56.76
2017-08-17T16:48:49.953Z,57.18
2017-08-17T16:51:19.255Z,57.14
2017-08-17T16:53:48.474Z,55.91
2017-08-17T16:56:17.946Z,55.86
2017-08-17T16:58:47.139Z,55.70
2017-08-17T17:01:16.479Z,56.79
2017-08-17T17:03:46.147Z,56.48
2017-08-17T17:06:15.895Z,56.00
2017-08-17T17:08:46.334Z,55.60
2017-08-17T17:11:16.143Z,56.43
2017-08-17T17:13:45.520Z,56.68
2017-08-17T17:16:14.899Z,57.30
2017-08-17T17:18:46.038Z,57.09
2017-08-17T17:21:15.410Z,57.74
2017-08-17T17:23:44.669Z,57.02
2017-08-17T17:26:14.170Z,58.23
2017-08-17T17:28:45.282Z,58.64
2017-08-17T17:31:14.458Z,57.75
2017-08-17T17:33:44.786Z,58.91
2017-08-17T17:36:14.063Z,57.63
2017-08-17T17:38:44.687Z,58.12
2017-08-17T17:41:14.364Z,59.06
2017-08-17T17:43:45.643Z,59.48
2017-08-17T17:46:14.829Z,59.80
2017-08-17T17:48:44.866Z,59.87
2017-08-17T17:51:14.018Z,59.41
2017-08-17T17:53:44.410Z,60.58
2017-08-17T17:56:13.935Z,60.55
2017-08-17T17:58:44.148Z,59.85
2017-08-17T18:01:13.355Z,60.09
2017-08-17T18:03:45.859Z,60.39
2017-08-17T18:06:15.163Z,59.97
2017-08-17T18:08:45.110Z,61.34
2017-08-17T18:11:14.560Z,61.31
2017-08-17T18:13:45.604Z,61.71
2017-08-17T18:16:17.280Z,61.59
2017-08-17T18:18:46.851Z,61.66
2017-08-17T18:21:16.064Z,61.08
2017-08-17T18:23:45.363Z,60.83
2017-08-17T18:26:14.858Z,61.27
2017-08-17T18:28:44.135Z,61.57
2017-08-17T18:31:13.385Z,61.06
2017-08-17T18:33:44.958Z,61.44
2017-08-17T18:36:14.223Z,60.95
2017-08-17T18:38:45.815Z,61.22
2017-08-17T18:41:15.418Z,60.96
2017-08-17T18:43:44.636Z,61.08
2017-08-17T18:46:13.843Z,61.16
2017-08-17T18:48:45.195Z,60.78
2017-08-17T18:51:14.367Z,61.00
2017-08-17T18:53:44.095Z,61.48
2017-08-17T18:56:13.587Z,61.63
2017-08-17T18:58:44.736Z,61.98
2017-08-17T19:01:13.943Z,61.97
2017-08-17T19:03:44.597Z,61.84
2017-08-17T19:06:14.145Z,62.22
2017-08-17T19:08:44.486Z,62.17
2017-08-17T19:11:13.916Z,62.51
2017-08-17T19:13:44.647Z,62.44
2017-08-17T19:16:13.852Z,63.31
2017-08-17T19:18:45.322Z,62.98
2017-08-17T19:21:14.604Z,62.96
2017-08-17T19:23:45.512Z,62.91
2017-08-17T19:26:15.034Z,63.01
2017-08-17T19:28:45.077Z,63.20
2017-08-17T19:31:14.418Z,63.09
2017-08-17T19:33:44.844Z,62.73
2017-08-17T19:36:14.067Z,63.35
2017-08-17T19:38:45.237Z,63.26
2017-08-17T19:41:14.725Z,63.83
2017-08-17T19:43:44.407Z,63.94
2017-08-17T19:46:20.917Z,64.02
2017-08-17T19:48:50.601Z,64.33
2017-08-17T19:51:19.813Z,64.30
2017-08-17T19:53:49.071Z,63.80
2017-08-17T19:56:20.032Z,63.57
2017-08-17T19:58:49.433Z,63.85
2017-08-17T20:01:18.646Z,64.38
2017-08-17T20:03:48.136Z,64.60
2017-08-17T20:06:17.351Z,64.48
2017-08-17T20:08:46.549Z,64.45
2017-08-17T20:11:16.082Z,64.54
2017-08-17T20:13:45.314Z,64.82
2017-08-17T20:16:14.485Z,65.33
2017-08-17T20:18:45.022Z,66.33
2017-08-17T20:21:14.551Z,67.02
2017-08-17T20:23:45.322Z,69.50
2017-08-17T20:26:14.831Z,69.99
2017-08-17T20:28:45.404Z,71.41
2017-08-17T20:31:14.750Z,71.02
2017-08-17T20:33:45.699Z,70.56
2017-08-17T20:36:15.076Z,70.98
2017-08-17T20:38:45.639Z,69.18
2017-08-17T20:41:15.578Z,69.77
2017-08-17T20:43:45.170Z,70.08
2017-08-17T20:46:14.495Z,69.83
2017-08-17T20:48:45.336Z,70.16
2017-08-17T20:51:14.633Z,69.92
2017-08-17T20:53:44.866Z,69.53
2017-08-17T20:56:14.591Z,69.50
2017-08-17T21:02:04.658Z,69.13
2017-08-17T21:04:34.006Z,69.43
2017-08-17T21:07:03.414Z,69.07
2017-08-17T21:09:33.070Z,68.59
2017-08-17T21:12:02.364Z,68.24
2017-08-17T21:14:31.694Z,67.32
2017-08-17T21:17:01.303Z,67.51
2017-08-17T21:19:30.658Z,67.29
2017-08-17T21:21:59.867Z,67.76
2017-08-17T21:24:29.347Z,67.58
2017-08-17T21:26:58.568Z,68.40
2017-08-17T21:29:27.731Z,68.51
2017-08-17T21:31:59.381Z,70.30
2017-08-17T21:34:28.603Z,71.19
2017-08-17T21:36:57.882Z,71.46
2017-08-17T21:39:27.322Z,71.62
2017-08-17T21:41:56.605Z,71.85
2017-08-17T21:44:25.798Z,71.61
2017-08-17T21:46:55.425Z,71.94
2017-08-17T21:49:24.606Z,73.29
2017-08-17T21:51:54.007Z,74.67
2017-08-17T21:56:51.426Z,74.39
2017-08-17T21:59:20.834Z,75.40
2017-08-17T22:01:50.323Z,73.93
2017-08-17T22:04:19.755Z,72.48
2017-08-17T22:06:49.332Z,72.89
2017-08-17T22:09:19.141Z,72.64
2017-08-17T22:11:48.311Z,72.36
2017-08-17T22:14:17.486Z,72.23
2017-08-17T22:16:46.964Z,71.92
2017-08-17T22:19:16.204Z,72.12
2017-08-17T22:21:45.366Z,71.71
2017-08-17T22:24:14.956Z,71.36
2017-08-17T22:26:44.397Z,70.85
2017-08-17T22:29:13.831Z,71.80
2017-08-17T22:31:46.080Z,72.23
2017-08-17T22:34:15.270Z,71.94
2017-08-17T22:36:44.513Z,73.67
2017-08-17T22:39:13.950Z,72.04
2017-08-17T22:41:44.895Z,76.50
2017-08-17T22:44:14.087Z,75.25
2017-08-17T22:46:45.444Z,77.31
2017-08-17T22:49:14.748Z,76.89
2017-08-17T22:51:44.914Z,75.35
2017-08-17T22:54:14.390Z,75.24
2017-08-17T22:56:45.615Z,74.21
2017-08-17T22:59:14.779Z,73.73
2017-08-17T23:01:45.596Z,73.17
2017-08-17T23:04:15.519Z,72.93
2017-08-17T23:06:44.947Z,76.74
2017-08-17T23:09:14.075Z,78.35
2017-08-17T23:11:44.773Z,75.99
2017-08-17T23:14:13.952Z,78.20
2017-08-17T23:16:45.155Z,75.73
2017-08-17T23:19:20.418Z,75.67
2017-08-17T23:21:59.845Z,75.47
2017-08-17T23:24:45.358Z,75.07
2017-08-17T23:27:16.872Z,74.97
2017-08-17T23:29:46.346Z,75.70
2017-08-17T23:32:15.572Z,75.13
2017-08-17T23:34:46.146Z,75.55
2017-08-17T23:37:15.760Z,80.58
2017-08-17T23:39:46.448Z,81.63
2017-08-17T23:42:15.706Z,78.28
2017-08-17T23:44:45.362Z,78.43
2017-08-17T23:47:14.835Z,78.63
2017-08-17T23:49:45.424Z,79.88
2017-08-17T23:52:15.012Z,77.95
2017-08-17T23:54:49.087Z,78.03
2017-08-17T23:57:19.230Z,77.61
2017-08-17T23:59:48.778Z,80.54
